createdAt,value
2019-04-24T00:03:34.841Z,66.24
2019-04-24T00:08:40.090Z,66.35
2019-04-24T00:11:38.227Z,66.00
2019-04-24T00:24:18.731Z,66.46
2019-04-24T00:26:59.191Z,66.88
2019-04-24T00:29:43.375Z,66.83
2019-04-24T00:32:02.815Z,66.83
2019-04-24T00:37:07.071Z,66.98
2019-04-24T00:44:40.678Z,67.23
2019-04-24T00:49:50.445Z,67.44
2019-04-24T00:52:14.842Z,67.37
2019-04-24T00:54:55.704Z,67.22
2019-04-24T00:57:33.653Z,67.20
2019-04-24T00:59:56.567Z,67.17
2019-04-24T01:02:31.351Z,67.64
2019-04-24T01:11:16.950Z,67.78
2019-04-24T01:18:44.025Z,68.05
2019-04-24T01:21:16.345Z,68.19
2019-04-24T01:23:47.089Z,68.23
2019-04-24T01:26:15.486Z,68.50
2019-04-24T01:31:59.739Z,68.43
2019-04-24T01:40:20.351Z,68.11
2019-04-24T01:45:40.310Z,68.50
2019-04-24T01:48:20.531Z,68.66
2019-04-24T01:53:14.547Z,68.05
2019-04-24T01:55:43.589Z,68.41
2019-04-24T01:58:20.075Z,68.51
2019-04-24T02:01:14.707Z,68.76
2019-04-24T02:03:35.228Z,69.01
2019-04-24T02:06:12.934Z,68.88
2019-04-24T02:08:32.805Z,69.21
2019-04-24T02:11:40.778Z,69.05
2019-04-24T02:14:31.534Z,69.09
2019-04-24T02:16:43.314Z,69.03
2019-04-24T02:19:29.520Z,69.31
2019-04-24T02:26:59.005Z,69.31
2019-04-24T02:29:33.323Z,69.57
2019-04-24T02:32:29.870Z,69.34
2019-04-24T02:35:00.777Z,69.87
2019-04-24T02:37:41.424Z,69.34
2019-04-24T02:40:29.120Z,68.96
2019-04-24T02:42:51.508Z,69.11
2019-04-24T02:48:00.974Z,69.44
2019-04-24T02:50:23.166Z,69.37
2019-04-24T02:58:13.621Z,69.31
2019-04-24T03:00:44.006Z,69.86
2019-04-24T03:08:54.026Z,70.43
2019-04-24T03:11:11.912Z,71.24
2019-04-24T03:17:22.284Z,71.55
2019-04-24T03:22:14.186Z,72.28
2019-04-24T03:24:45.774Z,72.22
2019-04-24T03:30:32.851Z,71.78
2019-04-24T03:33:23.422Z,72.19
2019-04-24T03:56:28.619Z,73.08
2019-04-24T04:02:28.281Z,73.75
2019-04-24T04:05:03.339Z,73.99
2019-04-24T04:12:55.607Z,74.01
2019-04-24T04:20:40.816Z,74.69
2019-04-24T04:31:36.348Z,75.92
2019-04-24T04:39:05.483Z,76.16
2019-04-24T04:42:29.909Z,76.81
2019-04-24T04:47:28.915Z,76.44
2019-04-24T04:58:35.418Z,77.37
2019-04-24T05:16:56.546Z,77.64
2019-04-24T05:24:39.041Z,77.39
2019-04-24T05:29:59.381Z,76.89
2019-04-24T05:41:18.754Z,77.06
2019-04-24T05:46:25.733Z,75.91
2019-04-24T05:48:58.799Z,75.48
2019-04-24T05:51:42.371Z,75.22
2019-04-24T05:54:28.981Z,74.92
2019-04-24T05:57:42.214Z,74.00
2019-04-24T06:05:04.313Z,73.06
2019-04-24T06:07:54.875Z,73.00
2019-04-24T06:10:47.638Z,72.29
2019-04-24T06:13:35.972Z,71.47
2019-04-24T06:16:48.479Z,71.12
2019-04-24T06:24:35.493Z,69.66
2019-04-24T06:27:10.770Z,68.60
2019-04-24T06:29:43.762Z,68.83
2019-04-24T06:34:54.763Z,66.91
2019-04-24T06:37:38.841Z,66.70
2019-04-24T06:41:06.439Z,65.99
2019-04-24T06:45:45.501Z,63.86
2019-04-24T06:48:19.710Z,63.74
2019-04-24T06:51:07.741Z,63.19
2019-04-24T06:53:20.559Z,61.91
2019-04-24T07:01:20.947Z,59.56
2019-04-24T07:09:48.249Z,57.49
2019-04-24T07:15:36.455Z,55.95
2019-04-24T07:18:07.943Z,56.37
2019-04-24T07:20:55.590Z,55.21
2019-04-24T07:28:35.457Z,52.74
2019-04-24T07:34:27.678Z,51.11
2019-04-24T07:42:12.147Z,49.87
2019-04-24T07:44:53.554Z,49.01
2019-04-24T07:47:29.041Z,47.91
2019-04-24T07:49:58.590Z,47.96
2019-04-24T07:55:09.928Z,46.83
2019-04-24T07:57:57.570Z,45.80
2019-04-24T08:00:25.907Z,45.96
2019-04-24T08:03:24.681Z,45.36
2019-04-24T08:05:49.900Z,43.69
2019-04-24T08:08:24.952Z,43.90
2019-04-24T08:11:18.450Z,42.64
2019-04-24T08:13:58.935Z,43.43
2019-04-24T08:16:43.393Z,44.89
2019-04-24T08:19:40.129Z,42.79
2019-04-24T08:21:48.184Z,44.83
2019-04-24T08:24:35.063Z,46.57
2019-04-24T08:27:07.304Z,45.46
2019-04-24T08:29:37.321Z,47.52
2019-04-24T08:32:21.042Z,48.66
2019-04-24T08:34:47.245Z,48.45
2019-04-24T08:37:42.533Z,49.08
2019-04-24T08:40:47.756Z,49.45
2019-04-24T08:43:21.369Z,50.77
2019-04-24T08:46:08.481Z,49.93
2019-04-24T08:54:08.981Z,49.32
2019-04-24T08:57:08.280Z,48.19
2019-04-24T09:02:29.413Z,45.47
2019-04-24T09:05:00.904Z,44.50
2019-04-24T09:08:09.462Z,42.97
2019-04-24T09:10:58.391Z,39.58
2019-04-24T09:13:43.847Z,39.83
2019-04-24T09:16:01.882Z,39.22
2019-04-24T09:18:59.594Z,38.38
2019-04-24T09:21:15.623Z,37.29
2019-04-24T09:24:23.107Z,35.62
2019-04-24T09:34:08.128Z,33.54
2019-04-24T09:37:02.532Z,32.66
2019-04-24T09:40:08.755Z,31.85
2019-04-24T09:44:58.025Z,31.98
2019-04-24T09:47:37.551Z,32.13
2019-04-24T09:50:00.460Z,29.31
2019-04-24T09:52:44.018Z,29.43
2019-04-24T09:55:15.704Z,28.02
2019-04-24T09:58:01.779Z,28.95
2019-04-24T10:00:37.270Z,29.92
2019-04-24T10:03:15.237Z,28.02
2019-04-24T10:08:48.529Z,27.60
2019-04-24T10:11:22.013Z,29.99
2019-04-24T10:13:56.021Z,27.86
2019-04-24T10:16:22.452Z,31.12
2019-04-24T10:21:43.959Z,31.19
2019-04-24T10:24:24.938Z,33.73
2019-04-24T10:27:03.492Z,31.85
2019-04-24T10:32:57.779Z,34.03
2019-04-24T10:35:39.771Z,34.79
2019-04-24T10:41:19.407Z,32.45
2019-04-24T10:44:09.070Z,29.78
2019-04-24T10:46:58.587Z,29.90
2019-04-24T10:49:45.857Z,27.70
2019-04-24T10:52:06.828Z,26.87
2019-04-24T10:54:59.738Z,26.63
2019-04-24T10:57:34.056Z,25.41
2019-04-24T10:59:59.496Z,28.24
2019-04-24T11:02:47.398Z,25.09
2019-04-24T11:08:29.222Z,27.73
2019-04-24T11:11:19.233Z,27.45
2019-04-24T11:14:17.259Z,28.56
2019-04-24T11:17:16.305Z,26.82
2019-04-24T11:19:55.269Z,31.11
2019-04-24T11:23:03.554Z,29.81
2019-04-24T11:30:53.321Z,29.67
2019-04-24T11:33:55.244Z,31.14
2019-04-24T11:36:34.273Z,31.30
2019-04-24T11:39:18.185Z,31.34
2019-04-24T11:41:47.699Z,35.38
2019-04-24T11:49:57.225Z,33.26
2019-04-24T11:52:56.167Z,35.12
2019-04-24T12:00:50.199Z,35.92
2019-04-24T12:03:38.409Z,36.42
2019-04-24T12:22:03.474Z,30.84
2019-04-24T12:24:43.871Z,28.37
2019-04-24T12:27:12.845Z,27.67
2019-04-24T12:35:22.142Z,27.51
2019-04-24T12:38:10.378Z,28.45
2019-04-24T12:40:53.833Z,27.09
2019-04-24T12:48:39.812Z,27.55
2019-04-24T12:51:06.334Z,27.54
2019-04-24T12:56:47.750Z,30.22
2019-04-24T12:59:36.729Z,27.47
2019-04-24T13:02:01.807Z,24.38
2019-04-24T13:07:33.580Z,27.91
2019-04-24T13:10:12.190Z,27.08
2019-04-24T13:15:29.865Z,32.14
2019-04-24T13:20:17.766Z,26.08
2019-04-24T13:22:53.093Z,27.72
2019-04-24T13:26:01.503Z,30.30
2019-04-24T13:29:01.612Z,31.89
2019-04-24T13:34:05.141Z,32.07
2019-04-24T13:36:46.417Z,34.45
2019-04-24T13:39:09.515Z,31.06
2019-04-24T13:41:57.611Z,29.20
2019-04-24T13:46:52.623Z,30.75
2019-04-24T13:52:02.963Z,29.12
2019-04-24T13:54:22.825Z,27.73
2019-04-24T13:57:00.251Z,28.10
2019-04-24T13:59:31.217Z,30.17
2019-04-24T14:02:01.156Z,30.39
2019-04-24T14:04:29.705Z,30.62
2019-04-24T14:07:16.510Z,32.00
2019-04-24T14:10:15.001Z,32.75
2019-04-24T14:15:10.326Z,32.41
2019-04-24T14:17:26.376Z,33.29
2019-04-24T14:20:24.275Z,33.83
2019-04-24T14:23:07.955Z,34.05
2019-04-24T14:28:19.591Z,31.72
2019-04-24T14:30:41.728Z,32.59
2019-04-24T14:38:19.303Z,34.95
2019-04-24T14:40:48.679Z,35.82
2019-04-24T14:46:16.989Z,36.80
2019-04-24T14:48:36.639Z,37.72
2019-04-24T14:51:04.888Z,38.20
2019-04-24T14:53:41.918Z,38.25
2019-04-24T14:56:13.042Z,38.53
2019-04-24T14:58:46.292Z,39.09
2019-04-24T15:01:19.164Z,39.65
2019-04-24T15:03:53.562Z,39.44
2019-04-24T15:06:30.056Z,38.61
2019-04-24T15:09:07.074Z,39.02
2019-04-24T15:11:36.030Z,39.17
2019-04-24T15:14:11.353Z,39.94
2019-04-24T15:19:43.302Z,41.18
2019-04-24T15:24:55.619Z,56.21
2019-04-24T15:27:15.861Z,64.74
2019-04-24T15:32:18.487Z,70.27
2019-04-24T15:35:04.299Z,72.48
2019-04-24T15:37:26.475Z,73.82
2019-04-24T15:40:26.398Z,76.00
2019-04-24T15:42:40.399Z,75.68
2019-04-24T15:45:07.232Z,76.07
2019-04-24T15:47:58.192Z,77.06
2019-04-24T15:50:19.674Z,77.29
2019-04-24T15:52:14.649Z,77.52
2019-04-24T15:54:46.096Z,77.62
2019-04-24T15:57:17.280Z,77.65
2019-04-24T16:00:16.511Z,77.64
2019-04-24T16:03:01.859Z,78.73
2019-04-24T16:04:55.962Z,80.53
2019-04-24T16:07:40.685Z,80.22
2019-04-24T16:10:19.586Z,81.30
2019-04-24T16:12:50.449Z,81.27
2019-04-24T16:15:58.883Z,81.31
2019-04-24T16:18:48.960Z,81.54
2019-04-24T16:24:20.558Z,80.18
2019-04-24T16:25:56.075Z,81.89
2019-04-24T16:28:36.563Z,82.04
2019-04-24T16:36:32.066Z,81.04
2019-04-24T16:38:56.420Z,77.01
2019-04-24T16:44:12.475Z,78.09
2019-04-24T16:54:21.633Z,77.76
2019-04-24T16:56:54.436Z,78.71
2019-04-24T16:59:35.937Z,77.55
2019-04-24T17:05:11.065Z,75.71
2019-04-24T17:07:45.411Z,75.84
2019-04-24T17:10:16.526Z,74.69
2019-04-24T17:12:39.418Z,75.21
2019-04-24T17:15:31.275Z,73.41
2019-04-24T17:18:07.002Z,72.69
2019-04-24T17:21:26.774Z,72.23
2019-04-24T17:23:35.263Z,71.76
2019-04-24T17:28:58.674Z,71.69
2019-04-24T17:31:27.803Z,72.09
2019-04-24T17:33:51.891Z,71.82
2019-04-24T17:36:17.751Z,71.57
2019-04-24T17:38:38.947Z,71.66
2019-04-24T17:41:15.348Z,72.54
2019-04-24T17:46:43.781Z,74.65
2019-04-24T17:52:11.583Z,75.07
2019-04-24T17:57:07.023Z,79.67
2019-04-24T17:59:08.530Z,82.06
2019-04-24T18:01:41.384Z,84.59
2019-04-24T18:04:13.384Z,84.78
2019-04-24T18:06:44.375Z,86.30
2019-04-24T18:09:15.370Z,87.11
2019-04-24T18:11:49.988Z,87.40
2019-04-24T18:14:22.066Z,87.68
2019-04-24T18:16:53.682Z,88.20
2019-04-24T18:19:24.159Z,87.95
2019-04-24T18:21:54.819Z,88.00
2019-04-24T18:24:59.614Z,88.32
2019-04-24T18:27:33.149Z,89.04
2019-04-24T18:30:05.153Z,89.43
2019-04-24T18:32:35.772Z,90.07
2019-04-24T18:35:07.595Z,90.53
2019-04-24T18:37:38.229Z,90.52
2019-04-24T18:40:10.124Z,90.65
2019-04-24T18:42:40.891Z,91.13
2019-04-24T18:45:15.074Z,91.42
2019-04-24T18:47:45.122Z,90.98
2019-04-24T18:50:16.060Z,91.59
2019-04-24T18:52:49.979Z,91.88
2019-04-24T18:55:21.780Z,92.05
2019-04-24T18:57:52.460Z,92.12
2019-04-24T19:00:23.276Z,92.90
2019-04-24T19:02:53.917Z,92.52
2019-04-24T19:05:24.742Z,92.55
2019-04-24T19:07:55.503Z,93.19
2019-04-24T19:10:26.627Z,93.76
2019-04-24T19:12:57.217Z,93.80
2019-04-24T19:15:27.766Z,94.33
2019-04-24T19:17:58.645Z,94.19
2019-04-24T19:20:29.435Z,94.32
2019-04-24T19:23:04.402Z,94.09
2019-04-24T19:25:32.533Z,94.22
2019-04-24T19:28:03.042Z,94.90
2019-04-24T19:30:33.603Z,95.40
2019-04-24T19:33:04.169Z,94.93
2019-04-24T19:35:34.734Z,95.67
2019-04-24T19:38:05.428Z,95.65
2019-04-24T19:40:39.810Z,96.05
2019-04-24T19:43:08.575Z,95.99
2019-04-24T19:45:39.157Z,96.29
2019-04-24T19:48:09.578Z,96.70
2019-04-24T19:50:41.599Z,96.38
2019-04-24T19:53:17.739Z,97.34
2019-04-24T19:55:44.737Z,97.21
2019-04-24T19:58:15.871Z,96.79
2019-04-24T20:00:47.754Z,96.93
2019-04-24T20:03:19.418Z,97.58
2019-04-24T20:05:53.662Z,97.71
2019-04-24T20:08:26.478Z,97.83
2019-04-24T20:11:15.729Z,97.45
2019-04-24T20:13:46.996Z,98.16
2019-04-24T20:16:18.740Z,98.47
2019-04-24T20:18:49.281Z,98.60
2019-04-24T20:21:21.549Z,98.61
2019-04-24T20:23:52.428Z,98.85
2019-04-24T20:26:23.156Z,99.05
2019-04-24T20:28:53.951Z,98.67
2019-04-24T20:31:25.562Z,99.30
2019-04-24T20:33:57.733Z,99.90
2019-04-24T20:36:28.679Z,99.09
2019-04-24T20:38:59.287Z,99.56
2019-04-24T20:41:31.151Z,100.20
2019-04-24T20:44:02.528Z,99.58
2019-04-24T20:46:33.123Z,100.46
2019-04-24T20:49:04.447Z,99.93
2019-04-24T20:51:38.038Z,100.15
2019-04-24T20:54:10.283Z,100.66
2019-04-24T20:56:41.430Z,100.91
2019-04-24T20:59:13.919Z,100.82
2019-04-24T21:01:44.848Z,101.30
2019-04-24T21:04:15.931Z,101.30
2019-04-24T21:06:52.858Z,101.71
2019-04-24T21:09:32.622Z,101.49
2019-04-24T21:12:04.495Z,101.59
2019-04-24T21:14:36.493Z,101.77
2019-04-24T21:17:07.938Z,101.56
2019-04-24T21:19:42.223Z,101.97
2019-04-24T21:22:11.030Z,102.71
2019-04-24T21:24:41.735Z,102.03
2019-04-24T21:27:12.251Z,102.08
2019-04-24T21:29:42.792Z,102.34
2019-04-24T21:32:13.449Z,102.03
2019-04-24T21:34:44.137Z,102.78
2019-04-24T21:37:14.884Z,102.73
2019-04-24T21:39:45.375Z,102.39
2019-04-24T21:42:16.900Z,102.67
2019-04-24T21:44:47.471Z,102.72
2019-04-24T21:47:18.072Z,102.88
2019-04-24T21:49:48.892Z,103.42
2019-04-24T21:52:19.432Z,103.59
2019-04-24T21:54:51.291Z,103.58
2019-04-24T21:57:22.664Z,103.26
2019-04-24T21:59:53.543Z,103.10
2019-04-24T22:02:33.633Z,103.24
2019-04-24T22:05:32.761Z,103.56
2019-04-24T22:08:03.313Z,103.06
2019-04-24T22:10:34.626Z,103.48
2019-04-24T22:13:08.319Z,103.73
2019-04-24T22:15:38.897Z,103.88
2019-04-24T22:18:10.210Z,103.08
2019-04-24T22:20:45.047Z,103.36
2019-04-24T22:23:37.328Z,103.51
2019-04-24T22:26:08.058Z,103.52
2019-04-24T22:28:42.107Z,104.16
2019-04-24T22:31:28.642Z,104.10
2019-04-24T22:34:33.801Z,103.76
2019-04-24T22:37:04.959Z,104.10
2019-04-24T22:39:52.574Z,104.38
2019-04-24T22:42:23.403Z,103.77
2019-04-24T22:44:54.113Z,103.52
2019-04-24T22:47:25.499Z,103.46
2019-04-24T22:49:55.996Z,103.57
2019-04-24T22:52:26.756Z,103.73
2019-04-24T22:54:59.705Z,103.78
2019-04-24T22:57:31.132Z,104.30
2019-04-24T23:00:08.361Z,104.20
2019-04-24T23:02:39.229Z,104.42
2019-04-24T23:05:11.644Z,104.47
2019-04-24T23:07:42.501Z,104.51
2019-04-24T23:10:13.320Z,104.32
2019-04-24T23:12:44.537Z,104.66
2019-04-24T23:15:16.632Z,104.68
2019-04-24T23:17:47.321Z,104.37
2019-04-24T23:20:21.199Z,104.52
2019-04-24T23:23:00.167Z,104.54
2019-04-24T23:25:50.638Z,104.78
2019-04-24T23:28:26.212Z,104.70
2019-04-24T23:31:14.939Z,104.72
2019-04-24T23:33:49.359Z,104.70
2019-04-24T23:36:19.948Z,104.65
2019-04-24T23:38:52.200Z,104.97
2019-04-24T23:41:23.195Z,104.89
2019-04-24T23:43:53.749Z,104.76
2019-04-24T23:46:24.409Z,104.77
2019-04-24T23:48:55.050Z,105.00
2019-04-24T23:51:25.800Z,104.63
2019-04-24T23:53:56.401Z,105.45
2019-04-24T23:56:26.978Z,105.39
2019-04-24T23:58:57.480Z,105.17
